createdAt,value
2019-03-09T00:00:28.026Z,2.13
2019-03-09T00:05:44.455Z,4.77
2019-03-09T00:11:01.452Z,2.03
2019-03-09T00:16:18.106Z,2.50
2019-03-09T00:21:35.188Z,2.23
2019-03-09T00:27:10.904Z,2.53
2019-03-09T00:32:47.899Z,1.93
2019-03-09T00:38:05.011Z,4.23
2019-03-09T00:43:21.915Z,3.73
2019-03-09T00:48:38.810Z,5.03
2019-03-09T00:53:55.732Z,3.50
2019-03-09T00:59:12.154Z,4.80
2019-03-09T01:04:29.118Z,4.90
2019-03-09T01:09:45.858Z,5.70
2019-03-09T01:15:02.807Z,6.57
2019-03-09T01:20:19.499Z,6.03
2019-03-09T01:25:36.400Z,8.57
2019-03-09T01:30:53.318Z,8.87
2019-03-09T01:36:10.214Z,10.00
2019-03-09T01:41:27.235Z,13.30
2019-03-09T01:46:44.265Z,10.90
2019-03-09T01:52:01.061Z,11.17
2019-03-09T01:57:17.826Z,12.47
2019-03-09T02:02:35.162Z,6.60
2019-03-09T02:07:52.210Z,11.70
2019-03-09T02:13:09.054Z,12.93
2019-03-09T02:18:26.091Z,10.83
2019-03-09T02:23:43.071Z,11.03
2019-03-09T02:29:01.089Z,15.47
2019-03-09T02:34:18.327Z,20.03
2019-03-09T02:45:15.821Z,16.23
2019-03-09T02:50:33.119Z,14.40
2019-03-09T02:55:50.515Z,22.43
2019-03-09T03:01:26.085Z,21.17
2019-03-09T03:06:43.185Z,14.63
2019-03-09T03:12:00.298Z,19.40
2019-03-09T03:17:17.453Z,27.57
2019-03-09T03:22:34.319Z,29.87
2019-03-09T03:27:51.538Z,30.47
2019-03-09T03:33:08.573Z,25.10
2019-03-09T03:38:25.603Z,36.40
2019-03-09T03:43:42.393Z,21.50
2019-03-09T03:48:59.221Z,28.87
2019-03-09T03:54:15.940Z,30.87
2019-03-09T03:59:33.153Z,20.87
2019-03-09T04:04:49.935Z,27.43
2019-03-09T04:10:06.484Z,21.73
2019-03-09T04:15:23.519Z,24.57
2019-03-09T04:20:40.181Z,26.40
2019-03-09T04:25:57.187Z,39.53
2019-03-09T04:31:13.958Z,32.30
2019-03-09T04:36:30.963Z,26.77
2019-03-09T04:41:47.655Z,26.83
2019-03-09T04:47:04.764Z,34.33
2019-03-09T04:52:21.484Z,32.13
2019-03-09T04:57:38.272Z,33.97
2019-03-09T05:02:55.074Z,33.17
2019-03-09T05:08:12.099Z,36.23
2019-03-09T05:13:28.819Z,40.23
2019-03-09T05:18:45.708Z,29.43
2019-03-09T05:24:02.662Z,22.40
2019-03-09T05:29:19.125Z,57.67
2019-03-09T05:34:35.812Z,43.53
2019-03-09T05:39:52.832Z,42.60
2019-03-09T05:45:09.956Z,43.13
2019-03-09T05:50:26.764Z,42.63
2019-03-09T05:55:43.471Z,25.73
2019-03-09T06:01:00.452Z,32.33
2019-03-09T06:06:17.371Z,42.27
2019-03-09T06:11:33.735Z,46.95
2019-03-09T06:16:50.730Z,50.70
2019-03-09T06:22:07.413Z,39.63
2019-03-09T06:27:25.546Z,46.87
2019-03-09T06:32:42.045Z,36.57
2019-03-09T06:37:58.937Z,36.50
2019-03-09T06:43:16.114Z,34.70
2019-03-09T06:48:33.227Z,48.37
2019-03-09T06:53:49.697Z,36.30
2019-03-09T06:59:06.869Z,38.20
2019-03-09T07:04:23.837Z,35.57
2019-03-09T07:09:40.572Z,32.63
2019-03-09T07:14:57.610Z,42.83
2019-03-09T07:20:14.334Z,39.83
2019-03-09T07:25:31.241Z,38.20
2019-03-09T07:30:48.180Z,29.87
2019-03-09T07:36:05.029Z,31.67
2019-03-09T07:41:22.218Z,32.40
2019-03-09T07:46:39.356Z,31.70
2019-03-09T07:51:56.472Z,32.67
2019-03-09T07:57:13.441Z,32.20
2019-03-09T08:02:30.452Z,32.50
2019-03-09T08:07:47.481Z,39.80
2019-03-09T08:13:04.424Z,43.27
2019-03-09T08:18:21.016Z,31.70
2019-03-09T08:23:38.077Z,35.80
2019-03-09T08:28:55.367Z,31.80
2019-03-09T08:34:12.057Z,29.63
2019-03-09T08:39:29.078Z,46.67
2019-03-09T08:44:48.755Z,37.63
2019-03-09T08:50:05.228Z,42.07
2019-03-09T08:55:21.984Z,51.40
2019-03-09T09:00:38.713Z,46.40
2019-03-09T09:05:55.253Z,50.23
2019-03-09T09:11:11.894Z,50.13
2019-03-09T09:16:28.540Z,43.27
2019-03-09T09:21:45.358Z,35.07
2019-03-09T09:27:01.913Z,34.00
2019-03-09T09:32:18.728Z,43.37
2019-03-09T09:37:35.272Z,43.60
2019-03-09T09:42:52.222Z,27.33
2019-03-09T09:48:09.190Z,45.30
2019-03-09T09:53:26.004Z,33.53
2019-03-09T09:58:43.000Z,29.37
2019-03-09T10:04:00.006Z,32.33
2019-03-09T10:09:17.126Z,31.17
2019-03-09T10:14:34.066Z,28.90
2019-03-09T10:19:51.110Z,24.70
2019-03-09T10:25:08.070Z,34.80
2019-03-09T10:30:24.379Z,28.77
2019-03-09T10:35:40.758Z,22.83
2019-03-09T10:40:58.026Z,37.13
2019-03-09T10:46:15.276Z,32.17
2019-03-09T10:51:32.249Z,23.33
2019-03-09T10:56:49.272Z,30.00
2019-03-09T11:02:05.837Z,26.90
2019-03-09T11:07:22.355Z,26.17
2019-03-09T11:12:39.169Z,29.07
2019-03-09T11:17:55.909Z,26.13
2019-03-09T11:23:12.614Z,19.83
2019-03-09T11:28:29.165Z,26.37
2019-03-09T11:33:45.774Z,22.87
2019-03-09T11:39:02.966Z,22.77
2019-03-09T11:44:20.187Z,24.00
2019-03-09T11:49:36.978Z,23.93
2019-03-09T11:54:53.420Z,16.80
2019-03-09T12:00:10.403Z,17.37
2019-03-09T12:05:27.403Z,22.37
2019-03-09T12:10:44.164Z,13.90
2019-03-09T12:16:01.207Z,9.53
2019-03-09T12:21:18.377Z,9.57
2019-03-09T12:26:35.571Z,13.67
2019-03-09T12:31:51.966Z,12.17
2019-03-09T12:37:08.781Z,12.63
2019-03-09T12:42:25.560Z,10.00
2019-03-09T12:47:42.124Z,20.23
2019-03-09T12:52:58.703Z,20.60
2019-03-09T12:58:15.374Z,16.57
2019-03-09T13:03:32.709Z,13.77
2019-03-09T13:08:50.013Z,7.00
2019-03-09T13:14:07.074Z,13.10
2019-03-09T13:19:24.158Z,10.97
2019-03-09T13:24:41.019Z,10.83
2019-03-09T13:29:57.890Z,11.37
2019-03-09T13:35:15.052Z,10.43
2019-03-09T13:40:31.893Z,11.23
2019-03-09T13:45:48.751Z,13.67
2019-03-09T13:51:05.610Z,10.77
2019-03-09T13:56:22.412Z,8.67
2019-03-09T14:01:39.072Z,11.40
2019-03-09T14:06:56.116Z,8.00
2019-03-09T14:12:13.467Z,8.43
2019-03-09T14:17:30.746Z,7.97
2019-03-09T14:22:47.391Z,21.48
2019-03-09T14:28:03.924Z,11.90
2019-03-09T14:33:21.188Z,9.30
2019-03-09T14:38:38.025Z,12.00
2019-03-09T14:43:54.928Z,11.17
2019-03-09T14:49:12.122Z,11.57
2019-03-09T14:54:29.125Z,9.63
2019-03-09T14:59:45.829Z,10.60
2019-03-09T15:05:03.580Z,15.43
2019-03-09T15:10:20.820Z,10.00
2019-03-09T15:15:37.839Z,12.77
2019-03-09T15:20:55.002Z,10.70
2019-03-09T15:26:11.649Z,13.47
2019-03-09T15:31:28.771Z,14.87
2019-03-09T15:36:45.072Z,8.63
2019-03-09T15:42:02.008Z,16.17
2019-03-09T15:47:19.031Z,8.77
2019-03-09T15:52:35.788Z,14.43
2019-03-09T15:57:52.135Z,16.23
2019-03-09T16:03:09.093Z,10.53
2019-03-09T16:08:25.602Z,8.00
2019-03-09T16:13:42.135Z,13.77
2019-03-09T16:18:59.267Z,14.83
2019-03-09T16:24:16.418Z,11.43
2019-03-09T16:29:33.136Z,12.30
2019-03-09T16:34:50.286Z,20.97
2019-03-09T16:40:06.895Z,10.77
2019-03-09T16:45:23.779Z,19.03
2019-03-09T16:50:40.758Z,18.57
2019-03-09T16:55:57.584Z,32.27
2019-03-09T17:01:14.897Z,23.43
2019-03-09T17:06:31.470Z,23.07
2019-03-09T17:11:48.452Z,28.27
2019-03-09T17:17:05.300Z,21.23
2019-03-09T17:22:32.434Z,25.17
2019-03-09T17:27:41.468Z,18.77
2019-03-09T17:32:58.443Z,31.67
2019-03-09T17:38:15.515Z,31.13
2019-03-09T17:43:32.314Z,32.95
2019-03-09T17:48:49.328Z,28.40
2019-03-09T17:54:06.037Z,29.50
2019-03-09T17:59:22.786Z,28.35
2019-03-09T18:04:39.582Z,38.50
2019-03-09T18:09:56.456Z,24.03
2019-03-09T18:15:13.294Z,27.17
2019-03-09T18:20:30.429Z,34.20
2019-03-09T18:25:47.166Z,28.87
2019-03-09T18:31:04.009Z,36.20
2019-03-09T18:36:20.484Z,39.10
2019-03-09T18:41:37.130Z,23.67
2019-03-09T18:46:54.298Z,31.77
2019-03-09T18:52:11.143Z,25.10
2019-03-09T18:57:27.864Z,26.47
2019-03-09T19:02:45.015Z,30.83
2019-03-09T19:08:01.438Z,28.17
2019-03-09T19:13:19.033Z,31.45
2019-03-09T19:18:36.195Z,29.20
2019-03-09T19:23:53.224Z,33.93
2019-03-09T19:29:10.321Z,30.93
2019-03-09T19:34:27.281Z,31.27
2019-03-09T19:39:45.043Z,27.83
2019-03-09T19:45:01.654Z,23.67
2019-03-09T19:50:18.623Z,34.23
2019-03-09T19:55:35.493Z,24.03
2019-03-09T20:00:52.269Z,20.47
2019-03-09T20:06:09.268Z,29.30
2019-03-09T20:11:26.027Z,27.07
2019-03-09T20:16:43.154Z,24.63
2019-03-09T20:22:00.233Z,28.40
2019-03-09T20:27:17.131Z,30.10
2019-03-09T20:32:36.414Z,24.73
2019-03-09T20:37:52.786Z,32.28
2019-03-09T20:43:09.568Z,33.03
2019-03-09T20:48:25.909Z,37.27
2019-03-09T20:53:42.665Z,28.40
2019-03-09T20:58:59.655Z,33.80
2019-03-09T21:04:16.845Z,26.87
2019-03-09T21:09:33.531Z,26.27
2019-03-09T21:14:50.598Z,23.60
2019-03-09T21:20:07.406Z,23.93
2019-03-09T21:25:24.512Z,28.57
2019-03-09T21:30:41.530Z,27.40
2019-03-09T21:35:58.720Z,25.60
2019-03-09T21:41:15.525Z,28.60
2019-03-09T21:46:32.207Z,35.40
2019-03-09T21:51:49.269Z,32.10
2019-03-09T21:57:06.508Z,32.80
2019-03-09T22:02:23.698Z,32.70
2019-03-09T22:07:40.931Z,39.57
2019-03-09T22:12:57.897Z,27.33
2019-03-09T22:18:14.529Z,38.60
2019-03-09T22:23:31.586Z,20.83
2019-03-09T22:28:48.219Z,33.40
2019-03-09T22:34:04.861Z,32.67
2019-03-09T22:39:22.185Z,26.63
2019-03-09T22:44:39.134Z,23.43
2019-03-09T22:49:56.082Z,34.60
2019-03-09T22:55:13.119Z,27.20
2019-03-09T23:00:30.466Z,32.87
2019-03-09T23:05:47.065Z,30.13
2019-03-09T23:11:03.785Z,29.03
2019-03-09T23:16:20.664Z,25.97
2019-03-09T23:21:37.587Z,25.43
2019-03-09T23:26:54.993Z,28.07
2019-03-09T23:32:11.711Z,25.43
2019-03-09T23:37:28.426Z,30.50
2019-03-09T23:42:45.720Z,32.07
2019-03-09T23:48:02.802Z,34.17
2019-03-09T23:53:19.730Z,20.50
2019-03-09T23:58:37.120Z,23.40
